Time;durP1;ratioP1;P1;durP2;ratioP2;P2;SDS_P1;SDS_P2;PMS_P1;PMS_P2;Temp;Humidity;BMP_temperature;BMP_pressure;BME280_temperature;BME280_humidity;BME280_pressure;Samples;Min_cycle;Max_cycle;Signal;HPM_P1;HPM_P2
2023/03/27 00:01:57;;;;;;;0.00;0.00;;;;;;;;;;5054340;28;20041;-87
2023/03/27 00:04:23;;;;;;;0.00;0.00;;;;;;;;;;5054644;28;20488;-87
2023/03/27 00:06:49;;;;;;;0.00;0.00;;;;;;;;;;5054401;28;20044;-87
2023/03/27 00:09:16;;;;;;;0.00;0.00;;;;;;;;;;5054641;28;20041;-87
2023/03/27 00:11:42;;;;;;;0.00;0.00;;;;;;;;;;5037773;28;20457;-87
2023/03/27 00:14:08;;;;;;;0.00;0.00;;;;;;;;;;5054231;28;20037;-87
2023/03/27 00:16:35;;;;;;;0.00;0.00;;;;;;;;;;5054715;28;20047;-87
2023/03/27 00:19:02;;;;;;;0.00;0.00;;;;;;;;;;5054532;28;20136;-87
2023/03/27 00:21:28;;;;;;;0.00;0.00;;;;;;;;;;5054487;28;20075;-87
2023/03/27 00:23:55;;;;;;;0.00;0.00;;;;;;;;;;5054586;28;20037;-87
2023/03/27 00:26:21;;;;;;;0.00;0.00;;;;;;;;;;5037689;28;20137;-87
2023/03/27 00:28:47;;;;;;;0.00;0.00;;;;;;;;;;5054359;28;20068;-86
2023/03/27 00:31:14;;;;;;;0.00;0.00;;;;;;;;;;5054667;28;20072;-87
2023/03/27 00:33:40;;;;;;;0.00;0.00;;;;;;;;;;5053907;28;20040;-87
2023/03/27 00:36:07;;;;;;;0.00;0.00;;;;;;;;;;5053865;28;20041;-88
2023/03/27 00:38:33;;;;;;;0.00;0.00;;;;;;;;;;5053456;28;20041;-87
2023/03/27 00:40:59;;;;;;;0.00;0.00;;;;;;;;;;5053811;28;20094;-87
2023/03/27 00:43:35;;;;;;;0.00;0.00;;;;;;;;;;5053472;28;20048;-87
2023/03/27 00:46:01;;;;;;;0.00;0.00;;;;;;;;;;5053901;28;20472;-87
2023/03/27 00:48:28;;;;;;;0.00;0.00;;;;;;;;;;5053216;28;20040;-87
2023/03/27 00:50:55;;;;;;;0.00;0.00;;;;;;;;;;5053733;28;20033;-87
2023/03/27 00:53:23;;;;;;;0.00;0.00;;;;;;;;;;5036699;28;20045;-87
2023/03/27 00:55:50;;;;;;;0.00;0.00;;;;;;;;;;5053558;28;20508;-87
2023/03/27 00:58:19;;;;;;;0.00;0.00;;;;;;;;;;5052317;28;20041;-87
2023/03/27 01:00:46;;;;;;;0.00;0.00;;;;;;;;;;5052803;28;20510;-87
2023/03/27 01:03:13;;;;;;;0.00;0.00;;;;;;;;;;5052703;28;20044;-88
2023/03/27 01:05:40;;;;;;;0.00;0.00;;;;;;;;;;5052921;28;20037;-87
2023/03/27 01:08:06;;;;;;;0.00;0.00;;;;;;;;;;5052787;28;20514;-89
2023/03/27 01:10:52;;;;;;;0.00;0.00;;;;;;;;;;5052942;28;20052;-87
2023/03/27 01:13:38;;;;;;;0.00;0.00;;;;;;;;;;5052483;28;20037;-87
2023/03/27 01:16:09;;;;;;;0.00;0.00;;;;;;;;;;5052840;28;20045;-88
2023/03/27 01:18:45;;;;;;;0.00;0.00;;;;;;;;;;5052697;28;20052;-87
2023/03/27 01:21:21;;;;;;;0.00;0.00;;;;;;;;;;5036118;28;20127;-87
2023/03/27 01:23:47;;;;;;;0.00;0.00;;;;;;;;;;5052218;28;20447;-87
2023/03/27 01:26:32;;;;;;;0.00;0.00;;;;;;;;;;5052605;28;20437;-87
2023/03/27 01:29:04;;;;;;;0.00;0.00;;;;;;;;;;5052216;28;20044;-87
2023/03/27 01:31:50;;;;;;;0.00;0.00;;;;;;;;;;5052819;28;20091;-87
2023/03/27 01:34:35;;;;;;;0.00;0.00;;;;;;;;;;5035380;28;20120;-87
2023/03/27 01:37:20;;;;;;;0.00;0.00;;;;;;;;;;5052127;28;20385;-87
2023/03/27 01:39:58;;;;;;;0.00;0.00;;;;;;;;;;5052726;28;20036;-87
2023/03/27 01:42:30;;;;;;;0.00;0.00;;;;;;;;;;5052026;28;20142;-86
2023/03/27 01:45:05;;;;;;;0.00;0.00;;;;;;;;;;5052166;28;20045;-87
2023/03/27 01:47:34;;;;;;;0.00;0.00;;;;;;;;;;5052006;28;20056;-87
2023/03/27 01:50:05;;;;;;;0.00;0.00;;;;;;;;;;5052467;28;20363;-87
2023/03/27 01:52:34;;;;;;;0.00;0.00;;;;;;;;;;5035340;28;20097;-88
2023/03/27 01:55:03;;;;;;;0.00;0.00;;;;;;;;;;5052096;28;20033;-87
2023/03/27 01:57:50;;;;;;;0.00;0.00;;;;;;;;;;5052044;28;20408;-87
2023/03/27 02:00:20;;;;;;;0.00;0.00;;;;;;;;;;5052045;28;20344;-87
2023/03/27 02:02:54;;;;;;;0.00;0.00;;;;;;;;;;5051739;28;20118;-88
2023/03/27 02:05:33;;;;;;;0.00;0.00;;;;;;;;;;5052132;28;20040;-87
2023/03/27 02:08:19;;;;;;;0.00;0.00;;;;;;;;;;5051852;28;20068;-87
2023/03/27 02:10:48;;;;;;;0.00;0.00;;;;;;;;;;5051547;28;20041;-87
2023/03/27 02:13:20;;;;;;;0.00;0.00;;;;;;;;;;5051961;28;20037;-87
2023/03/27 02:15:47;;;;;;;0.00;0.00;;;;;;;;;;5035782;28;20107;-87
2023/03/27 02:18:17;;;;;;;0.00;0.00;;;;;;;;;;5052144;28;20033;-87
2023/03/27 02:20:44;;;;;;;0.00;0.00;;;;;;;;;;5035998;28;20063;-87
2023/03/27 02:23:11;;;;;;;0.00;0.00;;;;;;;;;;5052283;28;20193;-87
2023/03/27 02:25:38;;;;;;;0.00;0.00;;;;;;;;;;5052132;28;20041;-88
2023/03/27 02:28:10;;;;;;;0.00;0.00;;;;;;;;;;5052196;28;20063;-87
2023/03/27 02:30:36;;;;;;;0.00;0.00;;;;;;;;;;5052328;28;20124;-87
2023/03/27 02:33:05;;;;;;;0.00;0.00;;;;;;;;;;5052093;28;20095;-87
2023/03/27 02:35:50;;;;;;;0.00;0.00;;;;;;;;;;5052352;28;20507;-88
2023/03/27 02:38:20;;;;;;;0.00;0.00;;;;;;;;;;5051874;28;20135;-87
2023/03/27 02:41:16;;;;;;;0.00;0.00;;;;;;;;;;5052299;28;20063;-87
2023/03/27 02:43:45;;;;;;;0.00;0.00;;;;;;;;;;5018353;28;20053;-88
2023/03/27 02:46:17;;;;;;;0.00;0.00;;;;;;;;;;5052458;28;20127;-87
2023/03/27 02:48:45;;;;;;;0.00;0.00;;;;;;;;;;5051916;28;20128;-88
2023/03/27 02:51:21;;;;;;;0.00;0.00;;;;;;;;;;5052307;28;20095;-87
2023/03/27 02:53:59;;;;;;;0.00;0.00;;;;;;;;;;5051951;28;20037;-87
2023/03/27 02:56:26;;;;;;;0.00;0.00;;;;;;;;;;5052181;28;20379;-87
2023/03/27 02:59:03;;;;;;;0.00;0.00;;;;;;;;;;5049400;28;20045;-88
2023/03/27 03:01:31;;;;;;;0.00;0.00;;;;;;;;;;5015517;28;20476;-87
2023/03/27 03:03:58;;;;;;;0.00;0.00;;;;;;;;;;4998663;28;20046;-88
2023/03/27 03:06:30;;;;;;;0.00;0.00;;;;;;;;;;5016401;28;20105;-88
2023/03/27 03:09:04;;;;;;;0.00;0.00;;;;;;;;;;4999098;28;20041;-88
2023/03/27 03:11:32;;;;;;;0.00;0.00;;;;;;;;;;5015612;28;20053;-87
2023/03/27 03:13:58;;;;;;;0.00;0.00;;;;;;;;;;4999099;28;20041;-87
2023/03/27 03:16:25;;;;;;;0.00;0.00;;;;;;;;;;5015538;28;20191;-87
2023/03/27 03:18:51;;;;;;;0.00;0.00;;;;;;;;;;4998940;28;20513;-88
2023/03/27 03:21:17;;;;;;;0.00;0.00;;;;;;;;;;5015723;28;20053;-87
2023/03/27 03:23:43;;;;;;;0.00;0.00;;;;;;;;;;5002519;28;20049;-87
2023/03/27 03:26:09;;;;;;;0.00;0.00;;;;;;;;;;5019261;28;20045;-88
2023/03/27 03:28:35;;;;;;;0.00;0.00;;;;;;;;;;5018812;28;20052;-87
2023/03/27 03:31:01;;;;;;;0.00;0.00;;;;;;;;;;5002710;28;20049;-87
2023/03/27 03:33:28;;;;;;;0.00;0.00;;;;;;;;;;5018583;28;20447;-88
2023/03/27 03:35:59;;;;;;;0.00;0.00;;;;;;;;;;5002560;28;20045;-87
2023/03/27 03:38:26;;;;;;;0.00;0.00;;;;;;;;;;5018710;28;20038;-88
2023/03/27 03:40:58;;;;;;;0.00;0.00;;;;;;;;;;5002279;28;20045;-87
2023/03/27 03:43:25;;;;;;;0.00;0.00;;;;;;;;;;5018267;28;20064;-87
2023/03/27 03:45:52;;;;;;;0.00;0.00;;;;;;;;;;5018352;28;20419;-87
2023/03/27 03:48:19;;;;;;;0.00;0.00;;;;;;;;;;5002327;28;20041;-87
2023/03/27 03:50:46;;;;;;;0.00;0.00;;;;;;;;;;5018174;28;20030;-87
2023/03/27 03:53:12;;;;;;;0.00;0.00;;;;;;;;;;5018404;28;20049;-87
2023/03/27 03:55:39;;;;;;;0.00;0.00;;;;;;;;;;5018193;28;20136;-90
2023/03/27 03:58:05;;;;;;;0.00;0.00;;;;;;;;;;5018338;28;20045;-87
2023/03/27 04:00:36;;;;;;;0.00;0.00;;;;;;;;;;5029161;28;20107;-87
2023/03/27 04:03:03;;;;;;;0.00;0.00;;;;;;;;;;5037715;28;20057;-88
2023/03/27 04:05:29;;;;;;;0.00;0.00;;;;;;;;;;5054936;28;20045;-87
2023/03/27 04:07:58;;;;;;;0.00;0.00;;;;;;;;;;5054253;28;20047;-87
2023/03/27 04:10:24;;;;;;;0.00;0.00;;;;;;;;;;5037924;28;20118;-87
2023/03/27 04:12:51;;;;;;;0.00;0.00;;;;;;;;;;5054722;28;20044;-87
2023/03/27 04:15:17;;;;;;;0.00;0.00;;;;;;;;;;5054884;28;20461;-87
2023/03/27 04:17:43;;;;;;;0.00;0.00;;;;;;;;;;5054803;28;20076;-88
2023/03/27 04:20:09;;;;;;;0.00;0.00;;;;;;;;;;5053941;28;20073;-88
2023/03/27 04:22:36;;;;;;;0.00;0.00;;;;;;;;;;5055178;28;20045;-88
2023/03/27 04:25:06;;;;;;;0.00;0.00;;;;;;;;;;5055085;28;20422;-87
2023/03/27 04:27:32;;;;;;;0.00;0.00;;;;;;;;;;5054726;28;20132;-88
2023/03/27 04:29:58;;;;;;;0.00;0.00;;;;;;;;;;5054518;28;20150;-87
2023/03/27 04:32:25;;;;;;;0.00;0.00;;;;;;;;;;5055915;28;20033;-87
2023/03/27 04:34:53;;;;;;;0.00;0.00;;;;;;;;;;5055759;28;20415;-88
2023/03/27 04:37:19;;;;;;;0.00;0.00;;;;;;;;;;5057746;28;20056;-87
2023/03/27 04:39:45;;;;;;;0.00;0.00;;;;;;;;;;5058253;28;20352;-88
2023/03/27 04:42:14;;;;;;;0.00;0.00;;;;;;;;;;5058591;28;20035;-87
2023/03/27 04:44:40;;;;;;;0.00;0.00;;;;;;;;;;5059369;28;20044;-87
2023/03/27 04:47:06;;;;;;;0.00;0.00;;;;;;;;;;5057483;28;20052;-87
2023/03/27 04:49:38;;;;;;;0.00;0.00;;;;;;;;;;5057898;28;20033;-87
2023/03/27 04:52:07;;;;;;;0.00;0.00;;;;;;;;;;5057936;28;20406;-87
2023/03/27 04:54:34;;;;;;;0.00;0.00;;;;;;;;;;5057419;28;20206;-88
2023/03/27 04:57:00;;;;;;;0.00;0.00;;;;;;;;;;5057092;28;20049;-88
2023/03/27 04:59:33;;;;;;;0.00;0.00;;;;;;;;;;5040812;28;20053;-88
2023/03/27 05:02:00;;;;;;;0.00;0.00;;;;;;;;;;5058182;28;20049;-87
2023/03/27 05:04:26;;;;;;;0.00;0.00;;;;;;;;;;5057078;28;20104;-87
2023/03/27 05:06:53;;;;;;;0.00;0.00;;;;;;;;;;5057922;28;20045;-87
2023/03/27 05:09:20;;;;;;;0.00;0.00;;;;;;;;;;5057185;28;20128;-87
2023/03/27 05:11:48;;;;;;;0.00;0.00;;;;;;;;;;5058031;28;20041;-87
2023/03/27 05:14:21;;;;;;;0.13;0.13;;;;;;;;;;5041336;28;20041;-87
2023/03/27 05:16:51;;;;;;;0.00;0.00;;;;;;;;;;5058642;28;20047;-87
2023/03/27 05:19:18;;;;;;;0.00;0.00;;;;;;;;;;5042126;28;20128;-88
2023/03/27 05:21:45;;;;;;;0.00;0.00;;;;;;;;;;5058965;28;20045;-88
2023/03/27 05:24:11;;;;;;;0.00;0.00;;;;;;;;;;5043097;28;20094;-87
2023/03/27 05:26:38;;;;;;;0.00;0.00;;;;;;;;;;5057478;28;20102;-88
2023/03/27 05:29:04;;;;;;;0.00;0.00;;;;;;;;;;5057684;28;20036;-88
2023/03/27 05:31:31;;;;;;;0.00;0.00;;;;;;;;;;5042133;28;20043;-87
2023/03/27 05:33:58;;;;;;;0.00;0.00;;;;;;;;;;5038571;28;20424;-87
2023/03/27 05:36:26;;;;;;;0.00;0.00;;;;;;;;;;5054935;28;20419;-87
2023/03/27 05:38:53;;;;;;;0.00;0.00;;;;;;;;;;5055415;28;20045;-88
2023/03/27 05:41:19;;;;;;;0.00;0.00;;;;;;;;;;5054865;28;20047;-87
2023/03/27 05:43:45;;;;;;;0.00;0.00;;;;;;;;;;5055210;28;20037;-87
2023/03/27 05:46:12;;;;;;;0.00;0.00;;;;;;;;;;5054282;28;20139;-88
2023/03/27 05:48:38;;;;;;;0.00;0.00;;;;;;;;;;5038106;28;20404;-88
2023/03/27 05:51:05;;;;;;;0.00;0.00;;;;;;;;;;5054974;28;20033;-88
2023/03/27 05:53:31;;;;;;;0.00;0.00;;;;;;;;;;5055534;28;20049;-87
2023/03/27 05:55:57;;;;;;;0.00;0.00;;;;;;;;;;5055265;28;20037;-87
2023/03/27 05:58:23;;;;;;;0.00;0.00;;;;;;;;;;5054977;28;20127;-88
2023/03/27 06:00:49;;;;;;;0.00;0.00;;;;;;;;;;5055403;28;20142;-88
2023/03/27 06:03:16;;;;;;;0.00;0.00;;;;;;;;;;5056159;28;20039;-87
2023/03/27 06:05:42;;;;;;;0.00;0.00;;;;;;;;;;5057306;28;20554;-88
2023/03/27 06:08:10;;;;;;;0.00;0.00;;;;;;;;;;5054202;28;20044;-88
2023/03/27 06:10:38;;;;;;;0.00;0.00;;;;;;;;;;5055576;28;20095;-88
2023/03/27 06:13:08;;;;;;;0.00;0.00;;;;;;;;;;5055943;28;20102;-87
2023/03/27 06:15:37;;;;;;;0.00;0.00;;;;;;;;;;5061384;28;20040;-88
2023/03/27 06:18:03;;;;;;;0.00;0.00;;;;;;;;;;5063999;28;20037;-88
2023/03/27 06:20:29;;;;;;;0.00;0.00;;;;;;;;;;5055721;28;20049;-88
2023/03/27 06:22:58;;;;;;;0.00;0.00;;;;;;;;;;5054520;28;20041;-88
2023/03/27 06:25:25;;;;;;;0.00;0.00;;;;;;;;;;5054655;28;20040;-88
2023/03/27 06:27:53;;;;;;;0.00;0.00;;;;;;;;;;5055296;28;20147;-88
2023/03/27 06:30:20;;;;;;;0.00;0.00;;;;;;;;;;5055988;28;20452;-89
2023/03/27 06:32:47;;;;;;;0.00;0.00;;;;;;;;;;5056620;28;20041;-88
2023/03/27 06:35:13;;;;;;;0.00;0.00;;;;;;;;;;5058269;28;20392;-91
2023/03/27 06:37:47;;;;;;;0.00;0.00;;;;;;;;;;5057333;28;20115;-89
2023/03/27 06:40:23;;;;;;;0.00;0.00;;;;;;;;;;5039219;28;20136;-89
2023/03/27 06:42:53;;;;;;;0.00;0.00;;;;;;;;;;5056598;28;20044;-89
2023/03/27 06:45:19;;;;;;;0.00;0.00;;;;;;;;;;5054953;28;20464;-88
2023/03/27 06:47:49;;;;;;;0.00;0.00;;;;;;;;;;5054432;28;20041;-88
2023/03/27 06:50:15;;;;;;;0.00;0.00;;;;;;;;;;5054427;28;20048;-89
2023/03/27 06:52:41;;;;;;;0.00;0.00;;;;;;;;;;5054698;28;20205;-88
2023/03/27 06:55:08;;;;;;;0.00;0.00;;;;;;;;;;5057674;28;20137;-88
2023/03/27 06:57:34;;;;;;;0.10;0.10;;;;;;;;;;5042852;28;20037;-89
2023/03/27 07:00:00;;;;;;;0.00;0.00;;;;;;;;;;5061969;28;20400;-89
2023/03/27 07:02:26;;;;;;;0.00;0.00;;;;;;;;;;5062407;28;20200;-91
2023/03/27 07:04:52;;;;;;;0.00;0.00;;;;;;;;;;5067277;28;20045;-92
2023/03/27 07:07:18;;;;;;;0.00;0.00;;;;;;;;;;5060862;28;20037;-90
2023/03/27 07:09:44;;;;;;;0.00;0.00;;;;;;;;;;5058007;28;20194;-88
2023/03/27 07:12:11;;;;;;;0.00;0.00;;;;;;;;;;5057126;28;20432;-89
2023/03/27 07:14:37;;;;;;;0.00;0.00;;;;;;;;;;5041503;28;20033;-88
2023/03/27 07:17:03;;;;;;;0.00;0.00;;;;;;;;;;5056522;28;20171;-87
2023/03/27 07:19:29;;;;;;;0.00;0.00;;;;;;;;;;5058609;28;20123;-89
2023/03/27 07:21:55;;;;;;;0.00;0.00;;;;;;;;;;5056648;28;20087;-87
2023/03/27 07:24:21;;;;;;;0.00;0.00;;;;;;;;;;5055951;28;20044;-86
2023/03/27 07:26:47;;;;;;;0.00;0.00;;;;;;;;;;5056023;28;20400;-88
2023/03/27 07:29:15;;;;;;;0.00;0.00;;;;;;;;;;5058032;28;20041;-88
2023/03/27 07:31:41;;;;;;;0.00;0.00;;;;;;;;;;5056032;28;20098;-87
2023/03/27 07:34:07;;;;;;;0.00;0.00;;;;;;;;;;5056370;28;20082;-86
2023/03/27 07:36:33;;;;;;;0.00;0.00;;;;;;;;;;5056213;28;20438;-88
2023/03/27 07:39:00;;;;;;;0.00;0.00;;;;;;;;;;5056771;28;20056;-88
2023/03/27 07:41:28;;;;;;;0.00;0.00;;;;;;;;;;5044059;28;20056;-88
2023/03/27 07:43:55;;;;;;;0.00;0.00;;;;;;;;;;5040451;28;20361;-87
2023/03/27 07:46:22;;;;;;;0.00;0.00;;;;;;;;;;5039767;28;20037;-87
2023/03/27 07:48:49;;;;;;;0.00;0.00;;;;;;;;;;5039432;28;20432;-87
2023/03/27 07:51:16;;;;;;;0.00;0.00;;;;;;;;;;5057219;28;20044;-89
2023/03/27 07:53:42;;;;;;;0.00;0.00;;;;;;;;;;5040332;28;20041;-88
2023/03/27 07:56:09;;;;;;;0.00;0.00;;;;;;;;;;5057041;28;20048;-88
2023/03/27 07:58:35;;;;;;;0.00;0.00;;;;;;;;;;5056554;28;20051;-87
2023/03/27 08:01:03;;;;;;;0.00;0.00;;;;;;;;;;5054624;28;20174;-87
2023/03/27 08:03:29;;;;;;;0.00;0.00;;;;;;;;;;5058463;28;20506;-87
2023/03/27 08:05:56;;;;;;;0.00;0.00;;;;;;;;;;5054220;28;20044;-86
2023/03/27 08:08:22;;;;;;;0.00;0.00;;;;;;;;;;5053703;28;20044;-85
2023/03/27 08:10:49;;;;;;;0.00;0.00;;;;;;;;;;5054045;28;20278;-87
2023/03/27 08:13:15;;;;;;;0.00;0.00;;;;;;;;;;5054466;28;20099;-87
2023/03/27 08:15:41;;;;;;;0.00;0.00;;;;;;;;;;5055299;28;20212;-86
2023/03/27 08:18:08;;;;;;;0.00;0.00;;;;;;;;;;5053667;28;20216;-86
2023/03/27 08:20:36;;;;;;;0.00;0.00;;;;;;;;;;5037470;28;20058;-86
2023/03/27 08:23:03;;;;;;;0.00;0.00;;;;;;;;;;5053321;28;20571;-87
2023/03/27 08:25:31;;;;;;;0.00;0.00;;;;;;;;;;5053635;28;20096;-86
2023/03/27 08:27:58;;;;;;;0.00;0.00;;;;;;;;;;5037549;28;20047;-86
2023/03/27 08:30:24;;;;;;;0.00;0.00;;;;;;;;;;5053388;28;20040;-86
2023/03/27 08:32:50;;;;;;;0.00;0.00;;;;;;;;;;5054018;28;20047;-88
2023/03/27 08:35:16;;;;;;;0.00;0.00;;;;;;;;;;5054351;28;20084;-86
2023/03/27 08:37:43;;;;;;;0.00;0.00;;;;;;;;;;5053031;28;20120;-87
2023/03/27 08:40:18;;;;;;;0.00;0.00;;;;;;;;;;5053376;28;20495;-87
2023/03/27 08:42:45;;;;;;;0.00;0.00;;;;;;;;;;5052952;28;20041;-87
2023/03/27 08:45:19;;;;;;;0.00;0.00;;;;;;;;;;5052925;28;20135;-87
2023/03/27 08:47:51;;;;;;;0.00;0.00;;;;;;;;;;5048501;28;20051;-87
2023/03/27 08:50:26;;;;;;;0.00;0.00;;;;;;;;;;5053316;28;20056;-87
2023/03/27 08:52:52;;;;;;;0.00;0.00;;;;;;;;;;5052740;28;20041;-88
2023/03/27 08:55:22;;;;;;;0.00;0.00;;;;;;;;;;5052809;28;20094;-87
2023/03/27 08:57:50;;;;;;;0.00;0.00;;;;;;;;;;5052605;28;20113;-87
2023/03/27 09:00:26;;;;;;;0.00;0.00;;;;;;;;;;5035902;28;20069;-87
2023/03/27 09:03:07;;;;;;;0.00;0.00;;;;;;;;;;5035922;28;20041;-87
2023/03/27 09:05:41;;;;;;;0.00;0.00;;;;;;;;;;5053048;28;20365;-87
2023/03/27 09:08:09;;;;;;;0.00;0.00;;;;;;;;;;5052459;28;20258;-87
2023/03/27 09:10:43;;;;;;;0.00;0.00;;;;;;;;;;5036533;28;20155;-89
2023/03/27 09:13:21;;;;;;;0.00;0.00;;;;;;;;;;5052480;28;20479;-87
2023/03/27 09:15:59;;;;;;;0.00;0.00;;;;;;;;;;5052551;28;20048;-88
2023/03/27 09:18:26;;;;;;;0.00;0.00;;;;;;;;;;5052364;28;20037;-88
2023/03/27 09:20:55;;;;;;;0.00;0.00;;;;;;;;;;5052156;28;20037;-88
2023/03/27 09:23:21;;;;;;;0.00;0.00;;;;;;;;;;5052184;28;20037;-87
2023/03/27 09:25:49;;;;;;;0.08;0.08;;;;;;;;;;5052634;28;20041;-88
2023/03/27 09:28:35;;;;;;;0.00;0.00;;;;;;;;;;5052181;28;20041;-89
2023/03/27 09:31:17;;;;;;;0.00;0.00;;;;;;;;;;5038841;28;20128;-87
2023/03/27 09:33:43;;;;;;;0.00;0.00;;;;;;;;;;5052044;28;20464;-87
2023/03/27 09:36:09;;;;;;;0.00;0.00;;;;;;;;;;5052409;28;20361;-87
2023/03/27 09:38:37;;;;;;;0.00;0.00;;;;;;;;;;5051930;28;20029;-88
2023/03/27 09:41:07;;;;;;;0.00;0.00;;;;;;;;;;5051727;28;20044;-87
2023/03/27 09:43:40;;;;;;;0.00;0.00;;;;;;;;;;5035063;28;20416;-88
2023/03/27 09:46:08;;;;;;;0.00;0.00;;;;;;;;;;5051836;28;20483;-88
2023/03/27 09:48:45;;;;;;;0.00;0.00;;;;;;;;;;5051881;28;20040;-88
2023/03/27 09:51:38;;;;;;;0.80;0.80;;;;;;;;;;5035717;28;20094;-89
2023/03/27 09:54:05;;;;;;;0.00;0.00;;;;;;;;;;5031844;28;20045;-87
2023/03/27 09:56:34;;;;;;;0.00;0.00;;;;;;;;;;5052238;28;20049;-88
2023/03/27 09:59:08;;;;;;;0.00;0.00;;;;;;;;;;5048272;28;20054;-93
2023/03/27 10:01:34;;;;;;;0.00;0.00;;;;;;;;;;4999605;28;20056;-89
2023/03/27 10:04:00;;;;;;;0.00;0.00;;;;;;;;;;5015721;28;20049;-88
2023/03/27 10:06:28;;;;;;;0.00;0.00;;;;;;;;;;5016379;28;20069;-88
2023/03/27 10:08:55;;;;;;;0.00;0.00;;;;;;;;;;5015453;28;20056;-89
2023/03/27 10:11:30;;;;;;;0.00;0.00;;;;;;;;;;4999126;28;20362;-88
2023/03/27 10:13:58;;;;;;;0.00;0.00;;;;;;;;;;5015094;28;20052;-88
2023/03/27 10:16:24;;;;;;;0.00;0.00;;;;;;;;;;5015642;28;20465;-89
2023/03/27 10:18:53;;;;;;;0.00;0.00;;;;;;;;;;4998743;28;20124;-89
2023/03/27 10:21:46;;;;;;;0.00;0.00;;;;;;;;;;4999043;28;20053;-88
2023/03/27 10:24:20;;;;;;;0.00;0.00;;;;;;;;;;4994219;28;20071;-89
2023/03/27 10:26:47;;;;;;;0.00;0.00;;;;;;;;;;5015326;28;20111;-88
2023/03/27 10:29:20;;;;;;;0.00;0.00;;;;;;;;;;5015167;28;20388;-88
2023/03/27 10:31:51;;;;;;;0.00;0.00;;;;;;;;;;5014670;28;20045;-88
2023/03/27 10:34:38;;;;;;;0.00;0.00;;;;;;;;;;4998491;28;20034;-88
2023/03/27 10:37:25;;;;;;;0.00;0.00;;;;;;;;;;5015317;28;20060;-87
2023/03/27 10:39:52;;;;;;;0.00;0.00;;;;;;;;;;4998964;28;20495;-88
2023/03/27 10:42:18;;;;;;;0.00;0.00;;;;;;;;;;5014987;28;20045;-88
2023/03/27 10:44:46;;;;;;;0.20;0.10;;;;;;;;;;5014810;28;20091;-88
2023/03/27 10:47:18;;;;;;;0.00;0.00;;;;;;;;;;5015016;28;20374;-87
2023/03/27 10:49:47;;;;;;;0.00;0.00;;;;;;;;;;5014949;28;20061;-87
2023/03/27 10:52:17;;;;;;;0.00;0.00;;;;;;;;;;5000303;28;20075;-91
2023/03/27 10:54:49;;;;;;;0.00;0.00;;;;;;;;;;5000614;28;20044;-88
2023/03/27 10:57:19;;;;;;;0.00;0.00;;;;;;;;;;5017191;28;20141;-89
2023/03/27 11:00:00;;;;;;;0.00;0.00;;;;;;;;;;5013455;28;20056;-88
2023/03/27 11:02:29;;;;;;;0.00;0.00;;;;;;;;;;5051106;28;20492;-88
2023/03/27 11:04:59;;;;;;;0.00;0.00;;;;;;;;;;5050920;28;20404;-88
2023/03/27 11:07:32;;;;;;;0.00;0.00;;;;;;;;;;5034462;28;20041;-88
2023/03/27 11:10:04;;;;;;;0.00;0.00;;;;;;;;;;5034264;28;20033;-89
2023/03/27 11:12:32;;;;;;;0.00;0.00;;;;;;;;;;5051083;28;20124;-88
2023/03/27 11:15:01;;;;;;;0.00;0.00;;;;;;;;;;5050864;28;20147;-89
2023/03/27 11:17:29;;;;;;;0.00;0.00;;;;;;;;;;5050792;28;20048;-88
2023/03/27 11:20:06;;;;;;;0.00;0.00;;;;;;;;;;5050636;28;20041;-89
2023/03/27 11:22:35;;;;;;;0.00;0.00;;;;;;;;;;5050858;28;20102;-88
2023/03/27 11:25:05;;;;;;;0.00;0.00;;;;;;;;;;5051346;28;20045;-89
2023/03/27 11:27:45;;;;;;;0.00;0.00;;;;;;;;;;5053979;28;20516;-88
2023/03/27 11:30:27;;;;;;;0.00;0.00;;;;;;;;;;5053650;28;20050;-89
2023/03/27 11:33:02;;;;;;;0.00;0.00;;;;;;;;;;5034830;28;20147;-89
2023/03/27 11:35:33;;;;;;;0.00;0.00;;;;;;;;;;5051144;28;20094;-88
2023/03/27 11:38:05;;;;;;;0.00;0.00;;;;;;;;;;5050446;28;20056;-88
2023/03/27 11:40:34;;;;;;;0.00;0.00;;;;;;;;;;5050904;28;20183;-92
2023/03/27 11:43:00;;;;;;;0.00;0.00;;;;;;;;;;5051596;28;20048;-89
2023/03/27 11:45:27;;;;;;;0.00;0.00;;;;;;;;;;5054650;28;20045;-88
2023/03/27 11:48:02;;;;;;;0.00;0.00;;;;;;;;;;5037575;28;20124;-87
2023/03/27 11:50:31;;;;;;;0.20;0.10;;;;;;;;;;5054695;28;20479;-92
2023/03/27 11:52:57;;;;;;;0.00;0.00;;;;;;;;;;5055121;28;20397;-88
2023/03/27 11:55:34;;;;;;;0.00;0.00;;;;;;;;;;5054344;28;20065;-89
2023/03/27 11:58:03;;;;;;;0.00;0.00;;;;;;;;;;5054281;28;20558;-89
2023/03/27 12:00:38;;;;;;;0.00;0.00;;;;;;;;;;5053912;28;20057;-89
2023/03/27 12:03:21;;;;;;;0.00;0.00;;;;;;;;;;5054292;28;20045;-89
2023/03/27 12:06:02;;;;;;;0.00;0.00;;;;;;;;;;5054438;28;20123;-89
2023/03/27 12:08:56;;;;;;;0.00;0.00;;;;;;;;;;5037632;28;20037;-90
2023/03/27 12:11:24;;;;;;;0.20;0.10;;;;;;;;;;5054794;28;20130;-89
2023/03/27 12:13:56;;;;;;;0.00;0.00;;;;;;;;;;5053736;28;20036;-88
2023/03/27 12:16:28;;;;;;;0.00;0.00;;;;;;;;;;5054021;28;20198;-89
2023/03/27 12:19:13;;;;;;;0.00;0.00;;;;;;;;;;5054420;28;20365;-88
2023/03/27 12:21:58;;;;;;;0.00;0.00;;;;;;;;;;5053715;28;20044;-88
2023/03/27 12:24:32;;;;;;;0.00;0.00;;;;;;;;;;5053358;28;20095;-88
2023/03/27 12:27:22;;;;;;;0.23;0.10;;;;;;;;;;5053453;28;20044;-88
2023/03/27 12:30:03;;;;;;;0.00;0.00;;;;;;;;;;5053344;28;20124;-89
2023/03/27 12:32:29;;;;;;;0.00;0.00;;;;;;;;;;5037113;28;20049;-89
2023/03/27 12:34:59;;;;;;;0.00;0.00;;;;;;;;;;5041956;28;20044;-89
2023/03/27 12:37:46;;;;;;;0.22;0.13;;;;;;;;;;5017037;28;20069;-88
2023/03/27 12:40:32;;;;;;;0.00;0.00;;;;;;;;;;5033068;28;20041;-87
2023/03/27 12:42:58;;;;;;;;;;;;;;;;;;5033854;28;20045;-89
2023/03/27 12:45:26;;;;;;;0.00;0.00;;;;;;;;;;5016557;28;20265;-88
2023/03/27 12:48:26;;;;;;;0.00;0.00;;;;;;;;;;5017013;28;20064;-87
2023/03/27 12:50:52;;;;;;;0.00;0.00;;;;;;;;;;4990595;28;20431;-89
2023/03/27 12:53:27;;;;;;;0.00;0.00;;;;;;;;;;5032988;28;20042;-89
2023/03/27 12:56:23;;;;;;;0.00;0.00;;;;;;;;;;5015595;28;20064;-88
2023/03/27 12:58:51;;;;;;;0.00;0.00;;;;;;;;;;5014455;28;20481;-88
2023/03/27 13:01:26;;;;;;;0.00;0.00;;;;;;;;;;4996877;28;20092;-88
2023/03/27 13:04:01;;;;;;;0.00;0.00;;;;;;;;;;4996782;28;20041;-88
2023/03/27 13:06:42;;;;;;;0.43;0.00;;;;;;;;;;4997154;28;20482;-88
2023/03/27 13:09:15;;;;;;;0.00;0.00;;;;;;;;;;4996560;28;20049;-88
2023/03/27 13:12:00;;;;;;;0.00;0.00;;;;;;;;;;4980359;28;20042;-88
2023/03/27 13:14:45;;;;;;;0.00;0.00;;;;;;;;;;4996592;28;20116;-89
2023/03/27 13:17:31;;;;;;;0.00;0.00;;;;;;;;;;4980317;28;20056;-88
2023/03/27 13:20:22;;;;;;;0.00;0.00;;;;;;;;;;4996358;28;20081;-90
2023/03/27 13:22:56;;;;;;;0.00;0.00;;;;;;;;;;4996433;28;20146;-90
2023/03/27 13:25:34;;;;;;;0.00;0.00;;;;;;;;;;4996065;28;20052;-88
2023/03/27 13:28:20;;;;;;;0.00;0.00;;;;;;;;;;4982036;28;20124;-89
2023/03/27 13:31:00;;;;;;;0.00;0.00;;;;;;;;;;4995873;28;20133;-89
2023/03/27 13:33:29;;;;;;;0.00;0.00;;;;;;;;;;4995820;28;20045;-89
2023/03/27 13:36:01;;;;;;;1.00;0.70;;;;;;;;;;4996152;28;20038;-88
2023/03/27 13:38:45;;;;;;;0.00;0.00;;;;;;;;;;4996056;28;20521;-87
2023/03/27 13:41:31;;;;;;;0.00;0.00;;;;;;;;;;5013111;28;20037;-88
2023/03/27 13:43:57;;;;;;;0.10;0.05;;;;;;;;;;5015474;28;20041;-87
2023/03/27 13:46:28;;;;;;;0.00;0.00;;;;;;;;;;4999066;28;20045;-88
2023/03/27 13:49:15;;;;;;;0.00;0.00;;;;;;;;;;5015543;28;20049;-87
2023/03/27 13:51:50;;;;;;;0.00;0.00;;;;;;;;;;5015499;28;20087;-88
2023/03/27 13:54:32;;;;;;;0.00;0.00;;;;;;;;;;5015421;28;20080;-87
2023/03/27 13:57:02;;;;;;;0.00;0.00;;;;;;;;;;4999517;28;20496;-88
2023/03/27 13:59:38;;;;;;;0.00;0.00;;;;;;;;;;5022887;28;20049;-88
2023/03/27 14:02:15;;;;;;;0.00;0.00;;;;;;;;;;5026871;28;20087;-88
2023/03/27 14:04:50;;;;;;;0.00;0.00;;;;;;;;;;5042829;28;20104;-88
2023/03/27 14:07:36;;;;;;;0.00;0.00;;;;;;;;;;5033487;28;20509;-88
2023/03/27 14:10:14;;;;;;;0.00;0.00;;;;;;;;;;5031138;28;20053;-88
2023/03/27 14:12:40;;;;;;;0.00;0.00;;;;;;;;;;5031756;28;20100;-90
2023/03/27 14:15:12;;;;;;;0.00;0.00;;;;;;;;;;5030087;28;20451;-88
2023/03/27 14:17:56;;;;;;;0.00;0.00;;;;;;;;;;5047172;28;20041;-88
2023/03/27 14:20:22;;;;;;;0.00;0.00;;;;;;;;;;5031337;28;20107;-88
2023/03/27 14:22:52;;;;;;;0.00;0.00;;;;;;;;;;5031582;28;20045;-88
2023/03/27 14:25:20;;;;;;;0.00;0.00;;;;;;;;;;5014714;28;20136;-86
2023/03/27 14:27:52;;;;;;;0.00;0.00;;;;;;;;;;5031227;28;20441;-88
2023/03/27 14:30:20;;;;;;;0.00;0.00;;;;;;;;;;5031227;28;20037;-88
2023/03/27 14:32:47;;;;;;;0.00;0.00;;;;;;;;;;5031186;28;20099;-87
2023/03/27 14:35:29;;;;;;;0.00;0.00;;;;;;;;;;5030801;28;20041;-87
2023/03/27 14:37:59;;;;;;;0.00;0.00;;;;;;;;;;5014871;28;20060;-87
2023/03/27 14:40:29;;;;;;;0.00;0.00;;;;;;;;;;5047038;28;20072;-88
2023/03/27 14:42:56;;;;;;;0.00;0.00;;;;;;;;;;5047580;28;20041;-87
2023/03/27 14:45:26;;;;;;;0.00;0.00;;;;;;;;;;5044476;28;20052;-88
2023/03/27 14:48:01;;;;;;;0.00;0.00;;;;;;;;;;5014259;28;20041;-87
2023/03/27 14:50:28;;;;;;;0.00;0.00;;;;;;;;;;5031053;28;20040;-88
2023/03/27 14:52:55;;;;;;;0.00;0.00;;;;;;;;;;5031113;28;20041;-88
2023/03/27 14:55:22;;;;;;;0.00;0.00;;;;;;;;;;5031042;28;20037;-88
2023/03/27 14:57:49;;;;;;;0.00;0.00;;;;;;;;;;5031467;28;20045;-88
2023/03/27 15:00:18;;;;;;;0.00;0.00;;;;;;;;;;5031179;28;20080;-89
2023/03/27 15:02:46;;;;;;;0.00;0.00;;;;;;;;;;5031405;28;20033;-88
2023/03/27 15:05:15;;;;;;;0.00;0.00;;;;;;;;;;5014875;28;20481;-89